createdAt,value
2017-06-04T06:51:26.439Z,290
2017-06-04T06:52:06.982Z,295
2017-06-04T06:52:47.524Z,285
2017-06-04T06:53:28.062Z,290
2017-06-04T06:54:08.607Z,260
2017-06-04T06:54:49.128Z,280
2017-06-04T06:55:29.668Z,255
2017-06-04T06:56:10.212Z,245
2017-06-04T06:56:50.754Z,285
2017-06-04T06:57:31.279Z,235
2017-06-04T06:58:11.813Z,215
2017-06-04T06:58:52.354Z,235
2017-06-04T06:59:32.900Z,270
2017-06-04T07:00:13.440Z,270
2017-06-04T07:00:53.987Z,300
2017-06-04T07:01:34.523Z,240
2017-06-04T07:02:15.059Z,225
2017-06-04T07:02:55.603Z,230
2017-06-04T07:03:36.143Z,255
2017-06-04T07:04:16.672Z,275
2017-06-04T07:04:57.214Z,215
2017-06-04T07:05:37.758Z,145
2017-06-04T07:06:18.293Z,120
2017-06-04T07:06:58.843Z,150
2017-06-04T07:07:39.393Z,220
2017-06-04T07:08:19.933Z,185
2017-06-04T07:09:00.475Z,125
2017-06-04T07:09:41.028Z,115
2017-06-04T07:10:21.572Z,130
2017-06-04T07:11:02.108Z,165
2017-06-04T07:11:42.612Z,185
2017-06-04T07:12:23.156Z,185
2017-06-04T07:13:03.691Z,215
2017-06-04T07:13:44.222Z,230
2017-06-04T07:14:24.758Z,195
2017-06-04T07:15:05.294Z,180
2017-06-04T07:15:45.824Z,185
2017-06-04T07:16:26.372Z,245
2017-06-04T07:17:06.906Z,295
2017-06-04T07:17:47.447Z,365
2017-06-04T07:18:27.980Z,410
2017-06-04T07:19:08.531Z,465
2017-06-04T07:19:49.066Z,345
2017-06-04T07:20:29.604Z,360
2017-06-04T07:21:10.138Z,400
2017-06-04T07:21:50.675Z,375
2017-06-04T07:22:31.220Z,370
2017-06-04T07:23:11.761Z,345
2017-06-04T07:23:52.296Z,265
2017-06-04T07:24:32.829Z,290
2017-06-04T07:25:13.359Z,290
2017-06-04T07:25:53.906Z,350
2017-06-04T07:26:34.454Z,390
2017-06-04T07:27:14.994Z,370
2017-06-04T07:27:55.539Z,390
2017-06-04T07:28:36.082Z,350
2017-06-04T07:29:16.625Z,385
2017-06-04T07:29:57.176Z,375
2017-06-04T07:30:37.713Z,380
2017-06-04T07:31:18.260Z,435
2017-06-04T07:31:58.814Z,450
2017-06-04T07:32:39.352Z,440
2017-06-04T07:33:19.889Z,465
2017-06-04T07:34:00.418Z,395
2017-06-04T07:34:40.950Z,425
2017-06-04T07:35:21.478Z,410
2017-06-04T07:36:02.021Z,515
2017-06-04T07:36:42.563Z,765
2017-06-04T07:37:23.098Z,1495
2017-06-04T07:38:03.642Z,700
2017-06-04T07:38:44.184Z,2055
2017-06-04T07:39:24.730Z,2710
2017-06-04T07:40:05.269Z,2640
2017-06-04T07:40:45.794Z,275
2017-06-04T07:41:26.321Z,265
2017-06-04T07:42:06.874Z,300
2017-06-04T07:42:47.420Z,600
2017-06-04T07:43:27.959Z,415
2017-06-04T07:44:08.505Z,410
2017-06-04T07:44:49.049Z,335
2017-06-04T07:45:29.586Z,325
2017-06-04T07:46:10.122Z,330
2017-06-04T07:46:50.648Z,345
2017-06-04T07:47:31.199Z,350
2017-06-04T07:48:11.748Z,315
2017-06-04T07:48:52.297Z,290
2017-06-04T07:49:32.844Z,255
2017-06-04T07:50:13.392Z,260
2017-06-04T07:50:53.935Z,320
2017-06-04T07:51:34.487Z,420
2017-06-04T07:52:15.026Z,415
2017-06-04T07:52:55.562Z,550
2017-06-04T07:53:36.111Z,655
2017-06-04T07:54:16.646Z,475
2017-06-04T07:54:57.196Z,360
2017-06-04T07:55:37.730Z,280
2017-06-04T07:56:18.267Z,260
2017-06-04T07:56:58.805Z,265
2017-06-04T07:57:39.342Z,305
2017-06-04T07:58:19.869Z,335
2017-06-04T07:59:00.414Z,295
2017-06-04T07:59:40.943Z,350
2017-06-04T08:00:21.476Z,535
2017-06-04T08:01:02.009Z,600
2017-06-04T08:01:42.544Z,675
2017-06-04T08:02:23.104Z,435
2017-06-04T08:03:03.635Z,340
2017-06-04T08:03:44.185Z,275
2017-06-04T08:04:24.726Z,270
2017-06-04T08:05:05.270Z,270
2017-06-04T08:05:45.792Z,250
2017-06-04T08:06:26.336Z,280
2017-06-04T08:07:06.870Z,345
2017-06-04T08:07:47.397Z,405
2017-06-04T08:08:27.944Z,505
2017-06-04T08:09:08.477Z,1960
2017-06-04T08:09:48.995Z,1350
2017-06-04T08:10:29.523Z,255
2017-06-04T08:11:10.060Z,225
2017-06-04T08:11:50.600Z,235
2017-06-04T08:12:31.153Z,280
2017-06-04T08:13:11.700Z,245
2017-06-04T08:13:52.243Z,220
2017-06-04T08:14:32.784Z,195
2017-06-04T08:15:13.333Z,170
2017-06-04T08:15:53.851Z,145
2017-06-04T08:16:34.384Z,125
2017-06-04T08:17:14.952Z,110
2017-06-04T08:17:55.495Z,105
2017-06-04T08:18:36.037Z,125
2017-06-04T08:19:16.574Z,145
2017-06-04T08:19:57.118Z,145
2017-06-04T08:20:37.666Z,130
2017-06-04T08:21:18.220Z,130
2017-06-04T08:21:58.781Z,140
2017-06-04T08:22:39.327Z,155
2017-06-04T08:23:19.866Z,165
2017-06-04T08:24:00.394Z,180
2017-06-04T08:24:40.937Z,195
2017-06-04T08:25:21.477Z,220
2017-06-04T08:26:02.007Z,270
2017-06-04T08:26:42.548Z,370
2017-06-04T08:27:23.074Z,835
2017-06-04T08:28:03.610Z,4855
2017-06-04T08:28:44.146Z,4445
2017-06-04T08:29:24.692Z,4245
2017-06-04T08:30:05.230Z,4520
2017-06-04T08:30:45.773Z,4425
2017-06-04T08:31:26.302Z,4115
2017-06-04T08:32:06.834Z,5540
2017-06-04T08:32:47.366Z,1860
2017-06-04T08:33:27.897Z,760
2017-06-04T08:34:08.436Z,3315
2017-06-04T08:34:48.984Z,1075
2017-06-04T08:35:29.513Z,435
2017-06-04T08:36:10.054Z,425
2017-06-04T08:36:50.600Z,4695
2017-06-04T08:37:31.138Z,4675
2017-06-04T08:38:11.678Z,610
2017-06-04T08:38:52.226Z,2650
2017-06-04T08:39:32.772Z,4400
2017-06-04T08:40:13.321Z,4280
2017-06-04T08:40:53.860Z,4305
2017-06-04T08:41:34.411Z,4245
2017-06-04T08:42:14.946Z,4030
2017-06-04T08:42:55.484Z,4110
2017-06-04T08:43:36.026Z,4215
2017-06-04T08:44:16.547Z,4130
2017-06-04T08:44:57.085Z,3935
2017-06-04T08:45:37.632Z,4100
2017-06-04T08:46:18.174Z,4070
2017-06-04T08:46:58.724Z,4305
2017-06-04T08:47:39.239Z,4040
2017-06-04T08:48:19.796Z,3910
2017-06-04T08:49:00.332Z,3575
2017-06-04T08:49:40.869Z,1235
2017-06-04T08:50:21.411Z,315
2017-06-04T08:51:01.970Z,365
2017-06-04T08:51:42.496Z,450
2017-06-04T08:52:23.052Z,660
2017-06-04T08:53:03.599Z,1755
2017-06-04T08:53:44.133Z,650
2017-06-04T08:54:24.671Z,3710
2017-06-04T08:55:05.229Z,3965
2017-06-04T08:55:45.773Z,725
2017-06-04T08:56:26.333Z,3260
2017-06-04T08:57:06.874Z,3780
2017-06-04T08:57:47.429Z,3815
2017-06-04T08:58:27.987Z,630
2017-06-04T08:59:08.556Z,2090
2017-06-04T08:59:49.059Z,1285
2017-06-04T09:00:30.143Z,4050
2017-06-04T09:01:10.914Z,3885
2017-06-04T09:01:51.459Z,1115
2017-06-04T09:02:32.007Z,770
2017-06-04T09:03:12.547Z,560
2017-06-04T09:03:53.085Z,1290
2017-06-04T09:04:33.629Z,2970
2017-06-04T09:05:14.215Z,2760
2017-06-04T09:05:54.772Z,330
2017-06-04T09:06:35.321Z,315
2017-06-04T09:07:15.860Z,365
2017-06-04T09:07:56.392Z,525
2017-06-04T09:08:36.932Z,3100
2017-06-04T09:09:17.470Z,905
2017-06-04T09:09:58.001Z,2440
2017-06-04T09:10:38.542Z,1565
2017-06-04T09:11:19.082Z,1185
2017-06-04T09:11:59.619Z,3335
2017-06-04T09:12:40.150Z,3415
2017-06-04T09:13:20.750Z,3345
2017-06-04T09:14:01.287Z,3255
2017-06-04T09:14:41.810Z,2920
2017-06-04T09:15:22.346Z,2575
2017-06-04T09:16:02.878Z,1455
2017-06-04T09:16:43.423Z,605
2017-06-04T09:17:23.967Z,545
2017-06-04T09:18:04.493Z,720
2017-06-04T09:18:45.074Z,525
2017-06-04T09:19:25.615Z,510
2017-06-04T09:20:06.164Z,645
2017-06-04T09:20:46.701Z,500
2017-06-04T09:21:27.254Z,610
2017-06-04T09:22:07.787Z,425
2017-06-04T09:22:48.318Z,485
2017-06-04T09:23:28.854Z,665
2017-06-04T09:24:09.407Z,730
2017-06-04T09:24:49.925Z,660
2017-06-04T09:25:30.468Z,580
2017-06-04T09:26:11.011Z,365
2017-06-04T09:26:51.557Z,315
2017-06-04T09:27:32.093Z,300
2017-06-04T09:28:12.624Z,305
2017-06-04T09:28:53.171Z,325
2017-06-04T09:29:33.709Z,395
2017-06-04T09:30:14.257Z,555
2017-06-04T09:30:54.802Z,1120
2017-06-04T09:31:35.353Z,2165
2017-06-04T09:32:15.893Z,3165
2017-06-04T09:32:56.422Z,3380
2017-06-04T09:33:36.964Z,1290
2017-06-04T09:34:17.503Z,1690
2017-06-04T09:34:58.052Z,415
2017-06-04T09:35:38.571Z,420
2017-06-04T09:36:19.105Z,495
2017-06-04T09:36:59.642Z,620
2017-06-04T09:37:40.167Z,520
2017-06-04T09:38:20.714Z,515
2017-06-04T09:39:01.243Z,615
2017-06-04T09:39:41.785Z,555
2017-06-04T09:40:22.332Z,605
2017-06-04T09:41:02.889Z,640
2017-06-04T09:41:43.426Z,770
2017-06-04T09:42:23.964Z,825
2017-06-04T09:43:04.501Z,800
2017-06-04T09:43:45.037Z,835
2017-06-04T09:44:25.585Z,815
2017-06-04T09:45:06.135Z,785
2017-06-04T09:45:46.665Z,650
2017-06-04T09:46:27.214Z,640
2017-06-04T09:47:07.763Z,650
2017-06-04T09:47:48.272Z,755
2017-06-04T09:48:28.810Z,885
2017-06-04T09:49:09.345Z,600
2017-06-04T09:49:49.881Z,895
2017-06-04T09:50:30.424Z,780
2017-06-04T09:51:10.965Z,2030
2017-06-04T09:51:51.524Z,2655
2017-06-04T09:52:32.049Z,3200
2017-06-04T09:53:12.572Z,1975
2017-06-04T09:53:53.167Z,4070
2017-06-04T09:54:33.675Z,4175
2017-06-04T09:55:14.212Z,4055
2017-06-04T09:55:54.752Z,750
2017-06-04T09:56:35.295Z,3720
2017-06-04T09:57:15.831Z,1455
2017-06-04T09:57:56.391Z,545
2017-06-04T09:58:36.938Z,625
2017-06-04T09:59:17.484Z,560
2017-06-04T09:59:58.024Z,3735
2017-06-04T10:00:38.575Z,400
2017-06-04T10:01:19.106Z,410
2017-06-04T10:01:59.635Z,475
2017-06-04T10:02:40.184Z,3795
2017-06-04T10:03:20.752Z,4355
2017-06-04T10:04:01.300Z,1860
2017-06-04T10:04:41.847Z,1930
2017-06-04T10:05:22.395Z,4095
2017-06-04T10:06:02.924Z,2155
2017-06-04T10:06:43.473Z,3125
2017-06-04T10:07:24.018Z,3920
2017-06-04T10:08:04.570Z,4080
2017-06-04T10:08:45.112Z,4160
2017-06-04T10:09:25.660Z,3145
2017-06-04T10:10:06.208Z,830
2017-06-04T10:10:46.756Z,585
2017-06-04T10:11:27.301Z,750
2017-06-04T10:12:07.839Z,3845
2017-06-04T10:12:48.388Z,3880
2017-06-04T10:13:28.923Z,4035
2017-06-04T10:14:09.480Z,4080
2017-06-04T10:14:50.031Z,4180
2017-06-04T10:15:30.584Z,4135
2017-06-04T10:16:11.135Z,3830
2017-06-04T10:16:51.678Z,4165
2017-06-04T10:17:32.242Z,4290
2017-06-04T10:18:12.787Z,4380
2017-06-04T10:18:53.328Z,4300
2017-06-04T10:19:33.882Z,4340
2017-06-04T10:20:14.427Z,4385
2017-06-04T10:20:54.956Z,4435
2017-06-04T10:21:35.496Z,3620
2017-06-04T10:22:16.051Z,775
2017-06-04T10:22:56.597Z,4520
2017-06-04T10:23:37.151Z,2910
2017-06-04T10:24:17.701Z,4460
2017-06-04T10:24:58.251Z,4170
2017-06-04T10:25:38.799Z,4280
2017-06-04T10:26:19.350Z,4235
2017-06-04T10:26:59.902Z,4130
2017-06-04T10:27:40.450Z,4060
2017-06-04T10:28:20.995Z,4190
2017-06-04T10:29:01.556Z,4055
2017-06-04T10:29:42.091Z,3770
2017-06-04T10:30:22.620Z,3765
2017-06-04T10:31:03.167Z,495
2017-06-04T10:31:43.714Z,425
2017-06-04T10:32:24.266Z,3745
2017-06-04T10:33:04.822Z,2095
2017-06-04T10:33:45.348Z,935
2017-06-04T10:34:25.888Z,605
2017-06-04T10:35:06.436Z,555
2017-06-04T10:35:46.978Z,415
2017-06-04T10:36:27.516Z,390
2017-06-04T10:37:08.063Z,450
2017-06-04T10:37:48.597Z,355
2017-06-04T10:38:29.143Z,350
2017-06-04T10:39:09.694Z,330
2017-06-04T10:39:50.244Z,325
2017-06-04T10:40:30.786Z,335
2017-06-04T10:41:11.322Z,380
2017-06-04T10:41:51.874Z,580
2017-06-04T10:42:32.425Z,805
2017-06-04T10:43:12.958Z,800
2017-06-04T10:43:53.503Z,795
2017-06-04T10:44:34.047Z,705
2017-06-04T10:45:14.589Z,640
2017-06-04T10:45:55.124Z,625
2017-06-04T10:46:35.674Z,605
2017-06-04T10:47:16.216Z,590
2017-06-04T10:47:56.782Z,595
2017-06-04T10:48:37.299Z,640
2017-06-04T10:49:17.849Z,665
2017-06-04T10:49:58.399Z,435
2017-06-04T10:50:38.948Z,760
2017-06-04T10:51:19.502Z,650
2017-06-04T10:52:00.056Z,835
2017-06-04T10:52:40.602Z,485
2017-06-04T10:53:21.154Z,420
2017-06-04T10:54:01.700Z,425
2017-06-04T10:54:42.250Z,720
2017-06-04T10:55:22.804Z,860
2017-06-04T10:56:03.359Z,1195
2017-06-04T10:56:43.899Z,1030
2017-06-04T10:57:24.453Z,1620
2017-06-04T10:58:05.005Z,745
2017-06-04T10:58:45.545Z,1940
2017-06-04T10:59:26.094Z,4420
2017-06-04T11:00:06.652Z,4175
2017-06-04T11:00:47.196Z,4410
2017-06-04T11:01:27.725Z,4370
2017-06-04T11:02:08.255Z,4605
2017-06-04T11:02:48.786Z,4370
2017-06-04T11:03:29.324Z,4420
2017-06-04T11:04:09.878Z,4460
2017-06-04T11:04:50.426Z,725
2017-06-04T11:05:31.042Z,540
2017-06-04T11:06:11.596Z,1385
2017-06-04T11:06:52.152Z,4630
2017-06-04T11:07:32.700Z,4690
2017-06-04T11:08:13.258Z,1510
2017-06-04T11:08:53.809Z,2275
2017-06-04T11:09:34.360Z,4460
2017-06-04T11:10:14.906Z,4340
2017-06-04T11:10:55.444Z,840
2017-06-04T11:11:35.988Z,4365
2017-06-04T11:12:16.551Z,4315
2017-06-04T11:12:57.089Z,3945
2017-06-04T11:13:37.640Z,920
2017-06-04T11:14:18.178Z,2175
2017-06-04T11:14:58.714Z,1815
2017-06-04T11:15:39.252Z,1200
2017-06-04T11:16:19.802Z,900
2017-06-04T11:17:00.355Z,830
2017-06-04T11:17:40.898Z,860
2017-06-04T11:18:21.447Z,550
2017-06-04T11:19:01.973Z,595
2017-06-04T11:19:42.521Z,585
2017-06-04T11:20:23.076Z,800
2017-06-04T11:21:03.626Z,850
2017-06-04T11:21:44.187Z,680
2017-06-04T11:22:24.742Z,885
2017-06-04T11:23:05.279Z,880
2017-06-04T11:23:45.827Z,880
2017-06-04T11:24:26.382Z,830
2017-06-04T11:25:06.944Z,575
2017-06-04T11:25:47.534Z,390
2017-06-04T11:26:28.037Z,405
2017-06-04T11:27:08.586Z,430
2017-06-04T11:27:49.135Z,540
2017-06-04T11:28:29.686Z,1000
2017-06-04T11:29:10.221Z,925
2017-06-04T11:29:50.764Z,895
2017-06-04T11:30:31.335Z,845
2017-06-04T11:31:11.878Z,870
2017-06-04T11:31:52.425Z,865
2017-06-04T11:32:32.938Z,880
2017-06-04T11:33:13.484Z,895
2017-06-04T11:33:54.065Z,1050
2017-06-04T11:34:34.621Z,1735
2017-06-04T11:35:15.171Z,2740
2017-06-04T11:35:55.718Z,3740
2017-06-04T11:36:36.236Z,1225
2017-06-04T11:37:16.773Z,3070
2017-06-04T11:37:57.320Z,4510
2017-06-04T11:38:37.861Z,4515
2017-06-04T11:39:18.409Z,4615
2017-06-04T11:39:58.962Z,4590
2017-06-04T11:40:39.515Z,4160
2017-06-04T11:41:20.050Z,2955
2017-06-04T11:42:00.596Z,1725
2017-06-04T11:42:41.148Z,920
2017-06-04T11:43:21.695Z,820
2017-06-04T11:44:02.230Z,820
2017-06-04T11:44:42.777Z,805
2017-06-04T11:45:23.330Z,800
2017-06-04T11:46:03.869Z,800
2017-06-04T11:46:44.400Z,800
2017-06-04T11:47:24.949Z,775
2017-06-04T11:48:05.482Z,780
2017-06-04T11:48:46.037Z,760
2017-06-04T11:49:26.576Z,780
2017-06-04T11:50:07.123Z,785
2017-06-04T11:50:47.673Z,770
2017-06-04T11:51:28.223Z,760
2017-06-04T11:52:08.771Z,770
2017-06-04T11:52:49.318Z,825
2017-06-04T11:53:29.860Z,850
2017-06-04T11:54:10.410Z,860
2017-06-04T11:54:50.959Z,545
2017-06-04T11:55:31.565Z,585
2017-06-04T11:56:12.089Z,950
2017-06-04T11:56:52.628Z,915
2017-06-04T11:57:33.177Z,870
2017-06-04T11:58:13.716Z,840
2017-06-04T11:58:54.263Z,805
2017-06-04T11:59:34.813Z,785
2017-06-04T12:00:15.375Z,770
2017-06-04T12:00:55.924Z,750
2017-06-04T12:01:36.470Z,740
2017-06-04T12:02:17.018Z,785
2017-06-04T12:02:57.565Z,785
2017-06-04T12:03:38.114Z,825
2017-06-04T12:04:18.660Z,800
2017-06-04T12:04:59.189Z,770
2017-06-04T12:05:39.757Z,770
2017-06-04T12:06:20.304Z,775
2017-06-04T12:07:00.852Z,795
2017-06-04T12:07:41.395Z,810
2017-06-04T12:08:21.936Z,865
2017-06-04T12:09:02.479Z,915
2017-06-04T12:09:43.100Z,950
2017-06-04T12:10:23.642Z,915
2017-06-04T12:11:04.180Z,915
2017-06-04T12:11:44.727Z,830
2017-06-04T12:12:25.265Z,395
2017-06-04T12:13:05.828Z,490
2017-06-04T12:13:46.362Z,355
2017-06-04T12:14:26.915Z,400
2017-06-04T12:15:07.447Z,850
2017-06-04T12:15:47.992Z,950
2017-06-04T12:16:28.531Z,930
2017-06-04T12:17:09.073Z,880
2017-06-04T12:17:49.624Z,840
2017-06-04T12:18:30.165Z,845
2017-06-04T12:19:10.702Z,825
2017-06-04T12:19:51.257Z,875
2017-06-04T12:20:31.808Z,530
2017-06-04T12:21:12.355Z,805
2017-06-04T12:21:52.899Z,465
2017-06-04T12:22:33.443Z,515
2017-06-04T12:23:13.977Z,905
2017-06-04T12:23:54.528Z,980
2017-06-04T12:24:35.084Z,950
2017-06-04T12:25:15.626Z,945
2017-06-04T12:25:56.155Z,940
2017-06-04T12:26:36.697Z,935
2017-06-04T12:27:17.239Z,955
2017-06-04T12:27:57.786Z,975
2017-06-04T12:28:38.336Z,915
2017-06-04T12:29:18.870Z,675
2017-06-04T12:29:59.408Z,915
2017-06-04T12:30:39.953Z,930
2017-06-04T12:31:20.499Z,530
2017-06-04T12:32:01.039Z,475
2017-06-04T12:32:41.596Z,435
2017-06-04T12:33:22.149Z,675
2017-06-04T12:34:02.697Z,720
2017-06-04T12:34:43.237Z,905
2017-06-04T12:35:23.786Z,890
2017-06-04T12:36:04.321Z,875
2017-06-04T12:36:44.854Z,835
2017-06-04T12:37:25.389Z,825
2017-06-04T12:38:05.932Z,815
2017-06-04T12:38:46.477Z,855
2017-06-04T12:39:27.029Z,885
2017-06-04T12:40:07.579Z,910
2017-06-04T12:40:48.119Z,960
2017-06-04T12:41:28.668Z,955
2017-06-04T12:42:09.218Z,915
2017-06-04T12:42:49.767Z,910
2017-06-04T12:43:30.323Z,870
2017-06-04T12:44:10.867Z,830
2017-06-04T12:44:51.412Z,800
2017-06-04T12:45:31.949Z,795
2017-06-04T12:46:12.500Z,795
2017-06-04T12:46:53.039Z,790
2017-06-04T12:47:33.588Z,750
2017-06-04T12:48:14.124Z,785
2017-06-04T12:48:54.691Z,785
2017-06-04T12:49:35.210Z,785
2017-06-04T12:50:15.750Z,785
2017-06-04T12:50:56.292Z,785
2017-06-04T12:51:36.869Z,785
2017-06-04T12:52:17.412Z,795
2017-06-04T12:52:57.945Z,795
2017-06-04T12:53:38.491Z,780
2017-06-04T12:54:19.020Z,765
2017-06-04T12:54:59.566Z,720
2017-06-04T12:55:40.102Z,380
2017-06-04T12:56:20.651Z,380
2017-06-04T12:57:01.203Z,780
2017-06-04T12:57:41.750Z,795
2017-06-04T12:58:22.290Z,795
2017-06-04T12:59:02.829Z,795
2017-06-04T12:59:43.378Z,805
2017-06-04T13:00:23.943Z,815
2017-06-04T13:01:04.471Z,835
2017-06-04T13:01:45.008Z,840
2017-06-04T13:02:25.554Z,830
2017-06-04T13:03:06.095Z,830
2017-06-04T13:03:46.655Z,800
2017-06-04T13:04:27.198Z,785
2017-06-04T13:05:07.755Z,785
2017-06-04T13:05:48.306Z,780
2017-06-04T13:06:28.846Z,410
2017-06-04T13:07:09.397Z,805
2017-06-04T13:07:49.943Z,765
2017-06-04T13:08:30.493Z,770
2017-06-04T13:09:11.038Z,640
2017-06-04T13:09:51.585Z,750
2017-06-04T13:10:32.126Z,725
2017-06-04T13:11:12.668Z,700
2017-06-04T13:11:53.207Z,515
2017-06-04T13:12:33.760Z,740
2017-06-04T13:13:14.306Z,450
2017-06-04T13:13:54.858Z,485
2017-06-04T13:14:35.405Z,480
2017-06-04T13:15:15.952Z,430
2017-06-04T13:15:56.483Z,400
2017-06-04T13:16:37.014Z,425
2017-06-04T13:17:17.557Z,750
2017-06-04T13:17:58.110Z,460
2017-06-04T13:18:38.654Z,460
2017-06-04T13:19:19.198Z,690
2017-06-04T13:19:59.778Z,500
2017-06-04T13:20:40.326Z,525
2017-06-04T13:21:20.872Z,645
2017-06-04T13:22:01.419Z,490
2017-06-04T13:22:41.972Z,500
2017-06-04T13:23:22.520Z,590
2017-06-04T13:24:03.100Z,705
2017-06-04T13:24:43.650Z,660
2017-06-04T13:25:24.188Z,690
2017-06-04T13:26:04.761Z,680
2017-06-04T13:26:45.308Z,660
2017-06-04T13:27:25.854Z,660
2017-06-04T13:28:06.397Z,640
2017-06-04T13:28:46.947Z,515
2017-06-04T13:29:27.484Z,480
2017-06-04T13:30:08.039Z,450
2017-06-04T13:30:48.576Z,455
2017-06-04T13:31:29.120Z,455
2017-06-04T13:32:09.654Z,480
2017-06-04T13:32:50.194Z,505
2017-06-04T13:33:30.737Z,595
2017-06-04T13:34:11.279Z,555
2017-06-04T13:34:51.813Z,555
2017-06-04T13:35:32.355Z,560
2017-06-04T13:36:12.903Z,580
2017-06-04T13:36:53.445Z,535
2017-06-04T13:37:33.985Z,505
2017-06-04T13:38:14.541Z,480
2017-06-04T13:38:55.095Z,485
2017-06-04T13:39:35.633Z,495
2017-06-04T13:40:16.179Z,515
2017-06-04T13:40:56.726Z,495
2017-06-04T13:41:37.277Z,465
2017-06-04T13:42:17.825Z,440
2017-06-04T13:42:58.368Z,430
2017-06-04T13:43:38.915Z,425
2017-06-04T13:44:19.453Z,420
2017-06-04T13:45:00.005Z,435
2017-06-04T13:45:40.545Z,490
2017-06-04T13:46:21.094Z,490
2017-06-04T13:47:01.624Z,500
2017-06-04T13:47:42.263Z,510
2017-06-04T13:48:22.745Z,530
2017-06-04T13:49:03.294Z,505
2017-06-04T13:49:43.829Z,470
2017-06-04T13:50:24.381Z,440
2017-06-04T13:51:04.926Z,435
2017-06-04T13:51:45.459Z,415
2017-06-04T13:52:26.000Z,420
2017-06-04T13:53:06.545Z,425
2017-06-04T13:53:47.079Z,435
2017-06-04T13:54:27.631Z,415
2017-06-04T13:55:08.161Z,395
2017-06-04T13:55:48.702Z,370
2017-06-04T13:56:29.242Z,330
2017-06-04T13:57:09.791Z,335
2017-06-04T13:57:50.330Z,340
2017-06-04T13:58:30.864Z,325
2017-06-04T13:59:11.424Z,305
2017-06-04T13:59:51.963Z,310
2017-06-04T14:00:32.518Z,275
2017-06-04T14:01:13.068Z,280
2017-06-04T14:01:53.627Z,305
2017-06-04T14:02:34.165Z,345
2017-06-04T14:03:14.724Z,380
2017-06-04T14:03:55.267Z,395
2017-06-04T14:04:35.816Z,390
2017-06-04T14:05:16.365Z,400
2017-06-04T14:05:56.895Z,405
2017-06-04T14:06:37.444Z,410
2017-06-04T14:07:17.992Z,400
2017-06-04T14:07:58.521Z,365
2017-06-04T14:08:39.065Z,325
2017-06-04T14:09:19.608Z,300
2017-06-04T14:10:00.124Z,285
2017-06-04T14:10:40.680Z,295
2017-06-04T14:11:21.227Z,335
2017-06-04T14:12:01.770Z,355
2017-06-04T14:12:42.341Z,355
2017-06-04T14:13:22.886Z,375
2017-06-04T14:14:03.424Z,390
2017-06-04T14:14:43.969Z,370
2017-06-04T14:15:24.519Z,385
2017-06-04T14:16:05.055Z,445
2017-06-04T14:16:45.608Z,460
2017-06-04T14:17:26.148Z,440
2017-06-04T14:18:06.730Z,420
2017-06-04T14:18:47.282Z,380
2017-06-04T14:19:27.828Z,340
2017-06-04T14:20:08.383Z,310
2017-06-04T14:20:49.179Z,290
2017-06-04T14:21:32.069Z,275
2017-06-04T14:22:12.945Z,255
2017-06-04T14:22:53.490Z,250
2017-06-04T14:23:34.031Z,250
2017-06-04T14:24:14.578Z,265
2017-06-04T14:24:55.165Z,285
2017-06-04T14:25:35.655Z,300
2017-06-04T14:26:16.186Z,295
2017-06-04T14:26:56.789Z,280
2017-06-04T14:27:37.346Z,265
2017-06-04T14:28:17.877Z,240
2017-06-04T14:28:58.416Z,220
2017-06-04T14:29:38.957Z,200
2017-06-04T14:30:19.613Z,185
2017-06-04T14:31:00.179Z,175
2017-06-04T14:31:40.762Z,165
2017-06-04T14:32:21.298Z,160
2017-06-04T14:33:02.195Z,155
2017-06-04T14:33:42.723Z,145
2017-06-04T14:34:23.378Z,140
2017-06-04T14:35:03.925Z,135
2017-06-04T14:35:44.471Z,130
2017-06-04T14:36:25.065Z,125
2017-06-04T14:37:05.597Z,120
2017-06-04T14:37:46.151Z,115
2017-06-04T14:38:26.845Z,110
2017-06-04T14:39:07.434Z,100
2017-06-04T14:39:48.187Z,95
2017-06-04T14:40:28.676Z,95
2017-06-04T14:41:09.203Z,90
2017-06-04T14:41:49.852Z,85
2017-06-04T14:42:30.471Z,80
2017-06-04T14:43:11.020Z,75
2017-06-04T14:43:51.794Z,75
2017-06-04T14:44:32.335Z,75
2017-06-04T14:45:12.885Z,80
2017-06-04T14:45:53.482Z,80
2017-06-04T14:46:34.044Z,85
2017-06-04T14:47:14.630Z,90
2017-06-04T14:47:55.198Z,90
2017-06-04T14:48:35.784Z,90
2017-06-04T14:49:16.316Z,90
2017-06-04T14:49:57.019Z,95
2017-06-04T14:50:37.664Z,95
2017-06-04T14:51:18.242Z,90
2017-06-04T14:51:58.749Z,90
2017-06-04T14:52:39.314Z,90
2017-06-04T14:53:19.881Z,90
2017-06-04T14:54:00.453Z,90
2017-06-04T14:54:41.031Z,95
2017-06-04T14:55:21.575Z,95
2017-06-04T14:56:02.199Z,100
2017-06-04T14:56:42.718Z,100
2017-06-04T14:57:23.472Z,105
2017-06-04T14:58:04.116Z,105
2017-06-04T14:58:44.654Z,105
2017-06-04T14:59:25.220Z,105
2017-06-04T15:00:05.752Z,105
2017-06-04T15:00:46.419Z,105
2017-06-04T15:01:26.954Z,110
2017-06-04T15:02:07.543Z,110
2017-06-04T15:02:48.203Z,110
